This is the latest recevied weather packets stored in our database for station/object LU8FJH-13. If no packets are shown the sender has not sent any weather packets the latest 10 day(s).
| Time | Temp. | Humidity | Pressure | Rain* | Wind** | Luminosity | Snow |
|---|---|---|---|---|---|---|---|
| 1777638293 | 21.11° C | 56% | 1009.6 hPa | 0 mm | - | - | - |
| 1777637753 | 21.11° C | 56% | 1009.5 hPa | 0 mm | - | - | - |
| 1777637213 | 21.11° C | 56% | 1009.6 hPa | 0 mm | - | - | - |
| 1777636673 | 21.11° C | 58% | 1009.5 hPa | 0 mm | - | - | - |
| 1777636133 | 20° C | 63% | 1009.2 hPa | 0 mm | - | - | - |
| 1777635593 | 17.78° C | 71% | 1009.1 hPa | 0 mm | - | - | - |
| 1777635053 | 17.78° C | 70% | 1009 hPa | 0 mm | - | - | - |
| 1777634513 | 17.22° C | 70% | 1008.9 hPa | 0 mm | - | - | - |
| 1777633973 | 17.22° C | 70% | 1008.9 hPa | 0 mm | - | - | - |
| 1777633433 | 16.67° C | 72% | 1009.1 hPa | 0 mm | - | - | - |
| 1777632893 | 16.67° C | 71% | 1009.1 hPa | 0 mm | - | - | - |
| 1777632353 | 16.67° C | 71% | 1009.1 hPa | 0 mm | - | - | - |
| 1777631813 | 16.67° C | 71% | 1009.2 hPa | 0 mm | - | - | - |
| 1777631273 | 16.67° C | 70% | 1009.1 hPa | 0 mm | - | - | - |
| 1777630733 | 17.22° C | 69% | 1008.9 hPa | 0 mm | - | - | - |
| 1777630193 | 17.22° C | 69% | 1008.8 hPa | 0 mm | - | - | - |
| 1777629653 | 17.22° C | 68% | 1008.7 hPa | 0 mm | - | - | - |
| 1777629113 | 17.22° C | 68% | 1008.8 hPa | 0 mm | - | - | - |
| 1777628573 | 17.78° C | 68% | 1008.9 hPa | 0 mm | - | - | - |
| 1777628033 | 17.78° C | 68% | 1008.8 hPa | 0 mm | - | - | - |
| 1777627493 | 17.78° C | 67% | 1008.8 hPa | 0 mm | - | - | - |
| 1777626953 | 17.78° C | 68% | 1008.6 hPa | 0 mm | - | - | - |
| 1777626413 | 17.78° C | 68% | 1008.5 hPa | 0 mm | - | - | - |
| 1777625873 | 17.78° C | 68% | 1008.6 hPa | 0 mm | - | - | - |
| 1777625333 | 17.78° C | 68% | 1008.9 hPa | 0 mm | - | - | - |
* Rain latest hour (hover to see other rain measurements)
** Current wind speed in m/s (hover to see current wind gust speed)